createdAt,value
2023-03-24T00:01:09.830Z,7.25
2023-03-24T00:02:13.709Z,6.70
2023-03-24T00:03:18.324Z,6.60
2023-03-24T00:04:21.879Z,6.43
2023-03-24T00:05:25.418Z,6.38
2023-03-24T00:06:27.723Z,6.32
2023-03-24T00:07:35.333Z,6.63
2023-03-24T00:08:37.711Z,6.80
2023-03-24T00:09:43.046Z,6.30
2023-03-24T00:10:47.707Z,6.18
2023-03-24T00:11:50.886Z,6.63
2023-03-24T00:12:53.267Z,6.72
2023-03-24T00:13:58.508Z,6.15
2023-03-24T00:15:02.665Z,6.30
2023-03-24T00:16:08.297Z,5.82
2023-03-24T00:17:12.694Z,6.63
2023-03-24T00:18:18.426Z,6.53
2023-03-24T00:19:22.728Z,6.68
2023-03-24T00:20:26.480Z,6.45
2023-03-24T00:21:28.979Z,6.80
2023-03-24T00:22:32.246Z,6.70
2023-03-24T00:23:36.288Z,6.50
2023-03-24T00:24:38.726Z,6.78
2023-03-24T00:26:01.726Z,7.05
2023-03-24T00:27:06.088Z,7.25
2023-03-24T00:28:08.179Z,5.97
2023-03-24T00:29:14.962Z,7.43
2023-03-24T00:30:18.559Z,7.43
2023-03-24T00:31:21.986Z,7.60
2023-03-24T00:32:24.648Z,8.50
2023-03-24T00:33:31.780Z,9.95
2023-03-24T00:34:38.631Z,10.75
2023-03-24T00:35:44.730Z,10.55
2023-03-24T00:36:48.709Z,12.07
2023-03-24T00:37:52.381Z,12.13
2023-03-24T00:38:58.594Z,12.98
2023-03-24T00:40:01.236Z,11.85
2023-03-24T00:41:07.752Z,12.38
2023-03-24T00:42:11.576Z,12.93
2023-03-24T00:43:20.149Z,11.52
2023-03-24T00:44:23.806Z,12.65
2023-03-24T00:45:26.872Z,11.60
2023-03-24T00:46:30.709Z,11.70
2023-03-24T00:47:36.947Z,11.80
2023-03-24T00:48:43.173Z,11.73
2023-03-24T00:49:46.221Z,11.98
2023-03-24T00:50:50.281Z,11.63
2023-03-24T00:51:54.210Z,12.70
2023-03-24T00:52:58.510Z,11.57
2023-03-24T00:54:02.136Z,11.60
2023-03-24T00:55:09.856Z,11.00
2023-03-24T00:56:15.734Z,11.60
2023-03-24T00:57:22.062Z,11.65
2023-03-24T00:58:25.569Z,10.18
2023-03-24T00:59:31.997Z,10.32
2023-03-24T01:00:35.319Z,9.73
2023-03-24T01:01:43.435Z,9.57
2023-03-24T01:02:46.829Z,7.47
2023-03-24T01:03:54.881Z,7.68
2023-03-24T01:04:59.025Z,6.90
2023-03-24T01:06:04.544Z,6.95
2023-03-24T01:07:07.974Z,6.32
2023-03-24T01:08:11.295Z,6.85
2023-03-24T01:09:13.907Z,6.07
2023-03-24T01:10:26.812Z,5.57
2023-03-24T01:11:40.346Z,5.15
2023-03-24T01:12:43.001Z,6.80
2023-03-24T01:13:46.418Z,5.88
2023-03-24T01:14:48.924Z,5.85
2023-03-24T01:15:53.101Z,5.72
2023-03-24T01:16:55.952Z,5.10
2023-03-24T01:18:02.544Z,5.32
2023-03-24T01:19:06.922Z,5.00
2023-03-24T01:20:12.212Z,5.03
2023-03-24T01:21:14.460Z,5.15
2023-03-24T01:22:18.220Z,4.88
2023-03-24T01:23:21.982Z,5.32
2023-03-24T01:24:26.019Z,5.20
2023-03-24T01:25:36.033Z,5.10
2023-03-24T01:26:39.564Z,5.05
2023-03-24T01:27:41.695Z,4.88
2023-03-24T01:28:44.987Z,5.32
2023-03-24T01:29:47.120Z,4.82
2023-03-24T01:30:50.696Z,5.05
2023-03-24T01:31:53.156Z,4.85
2023-03-24T01:32:56.853Z,4.82
2023-03-24T01:33:59.221Z,5.00
2023-03-24T01:35:04.720Z,4.90
2023-03-24T01:36:07.854Z,5.60
2023-03-24T01:37:11.489Z,4.88
2023-03-24T01:38:14.980Z,5.13
2023-03-24T01:39:18.480Z,4.82
2023-03-24T01:40:23.329Z,4.70
2023-03-24T01:41:28.151Z,5.25
2023-03-24T01:42:30.220Z,5.13
2023-03-24T01:43:37.463Z,5.57
2023-03-24T01:45:01.530Z,5.00
2023-03-24T01:46:10.570Z,6.55
2023-03-24T01:47:13.756Z,5.53
2023-03-24T01:48:21.693Z,5.50
2023-03-24T01:49:27.256Z,6.00
2023-03-24T01:50:32.407Z,5.85
2023-03-24T01:51:37.096Z,6.20
2023-03-24T01:52:42.577Z,7.45
2023-03-24T01:53:48.355Z,6.28
2023-03-24T01:54:54.928Z,5.55
2023-03-24T01:55:59.946Z,6.40
2023-03-24T01:57:11.302Z,6.93
2023-03-24T01:58:15.658Z,6.78
2023-03-24T01:59:58.914Z,8.05
2023-03-24T02:01:17.647Z,7.55
2023-03-24T02:02:34.937Z,8.68
2023-03-24T02:03:38.717Z,8.85
2023-03-24T02:04:44.862Z,7.75
2023-03-24T02:05:51.202Z,8.27
2023-03-24T02:06:54.611Z,8.05
2023-03-24T02:08:02.332Z,9.05
2023-03-24T02:09:05.879Z,8.77
2023-03-24T02:10:12.769Z,8.93
2023-03-24T02:11:15.794Z,8.40
2023-03-24T02:12:27.254Z,8.45
2023-03-24T02:13:29.905Z,9.15
2023-03-24T02:14:33.559Z,8.60
2023-03-24T02:15:40.747Z,8.98
2023-03-24T02:16:59.844Z,8.68
2023-03-24T02:18:08.178Z,9.30
2023-03-24T02:19:45.465Z,9.73
2023-03-24T02:21:22.313Z,10.00
2023-03-24T02:23:03.277Z,10.40
2023-03-24T02:24:48.944Z,10.63
2023-03-24T02:26:21.026Z,10.27
2023-03-24T02:27:39.018Z,10.85
2023-03-24T02:28:49.019Z,10.18
2023-03-24T02:30:25.165Z,10.05
2023-03-24T02:31:44.400Z,10.32
2023-03-24T02:33:19.670Z,10.13
2023-03-24T02:34:44.135Z,10.95
2023-03-24T02:36:01.835Z,11.73
2023-03-24T02:37:47.840Z,11.48
2023-03-24T02:39:25.301Z,12.70
2023-03-24T02:40:43.596Z,13.85
2023-03-24T02:42:00.109Z,13.25
2023-03-24T02:43:11.120Z,13.13
2023-03-24T02:44:21.481Z,13.23
2023-03-24T02:45:29.746Z,12.07
2023-03-24T02:46:56.373Z,11.98
2023-03-24T02:48:10.923Z,11.82
2023-03-24T02:49:37.100Z,12.18
2023-03-24T02:51:12.085Z,12.70
2023-03-24T02:52:18.666Z,11.85
2023-03-24T02:54:12.957Z,10.50
2023-03-24T02:55:41.221Z,11.20
2023-03-24T02:56:53.744Z,11.20
2023-03-24T02:58:19.653Z,11.52
2023-03-24T02:59:33.950Z,11.02
2023-03-24T03:00:45.959Z,11.38
2023-03-24T03:01:54.523Z,11.05
2023-03-24T03:03:59.988Z,11.23
2023-03-24T03:05:36.344Z,10.75
2023-03-24T03:06:41.784Z,10.38
2023-03-24T03:07:45.454Z,11.23
2023-03-24T03:08:49.754Z,11.43
2023-03-24T03:09:58.400Z,12.65
2023-03-24T03:11:03.883Z,12.10
2023-03-24T03:12:08.243Z,11.93
2023-03-24T03:13:18.429Z,11.63
2023-03-24T03:14:24.346Z,12.00
2023-03-24T03:15:30.671Z,11.73
2023-03-24T03:16:38.819Z,12.18
2023-03-24T03:17:44.695Z,11.40
2023-03-24T03:18:50.326Z,11.40
2023-03-24T03:20:20.776Z,11.80
2023-03-24T03:21:28.085Z,11.07
2023-03-24T03:22:43.715Z,11.70
2023-03-24T03:23:50.762Z,11.90
2023-03-24T03:24:57.847Z,11.10
2023-03-24T03:26:06.282Z,9.70
2023-03-24T03:27:17.277Z,9.50
2023-03-24T03:28:30.123Z,9.88
2023-03-24T03:32:08.026Z,8.98
2023-03-24T03:33:26.820Z,7.63
2023-03-24T03:34:41.911Z,7.50
2023-03-24T03:35:52.982Z,7.60
2023-03-24T03:37:18.684Z,8.52
2023-03-24T03:38:26.368Z,8.10
2023-03-24T03:49:48.264Z,7.50
2023-03-24T03:55:39.069Z,6.28
2023-03-24T03:56:50.077Z,6.90
2023-03-24T03:58:02.347Z,6.25
2023-03-24T03:59:34.109Z,7.07
2023-03-24T04:00:57.140Z,7.13
2023-03-24T04:02:30.610Z,7.10
2023-03-24T04:03:52.583Z,7.80
2023-03-24T04:05:20.912Z,7.43
2023-03-24T04:06:54.140Z,7.57
2023-03-24T04:08:14.275Z,7.88
2023-03-24T04:09:39.320Z,7.68
2023-03-24T04:11:11.265Z,7.45
2023-03-24T04:12:42.335Z,7.45
2023-03-24T04:14:35.156Z,8.50
2023-03-24T04:16:08.656Z,7.28
2023-03-24T04:17:44.182Z,7.63
2023-03-24T04:19:00.957Z,7.40
2023-03-24T04:20:10.641Z,7.68
2023-03-24T04:21:28.521Z,6.45
2023-03-24T04:22:42.359Z,7.43
2023-03-24T04:25:00.504Z,7.18
2023-03-24T04:26:32.746Z,7.47
2023-03-24T04:27:39.091Z,6.72
2023-03-24T04:29:10.049Z,7.22
2023-03-24T04:30:18.607Z,7.28
2023-03-24T04:31:28.820Z,7.03
2023-03-24T04:32:35.950Z,7.35
2023-03-24T04:33:45.851Z,8.23
2023-03-24T04:34:54.515Z,7.82
2023-03-24T04:36:19.331Z,7.75
2023-03-24T04:37:59.648Z,7.22
2023-03-24T04:39:07.759Z,7.65
2023-03-24T04:40:22.793Z,7.72
2023-03-24T04:41:38.710Z,9.02
2023-03-24T04:43:08.039Z,7.68
2023-03-24T04:44:35.610Z,7.68
2023-03-24T04:46:03.883Z,8.55
2023-03-24T04:47:20.388Z,8.98
2023-03-24T04:48:36.907Z,8.60
2023-03-24T04:49:46.349Z,8.10
2023-03-24T04:51:19.390Z,7.93
2023-03-24T04:52:39.005Z,8.73
2023-03-24T04:53:41.571Z,8.55
2023-03-24T04:54:49.142Z,7.88
2023-03-24T04:56:01.696Z,8.63
2023-03-24T04:57:37.249Z,7.90
2023-03-24T04:58:42.430Z,8.10
2023-03-24T04:59:52.751Z,8.88
2023-03-24T05:00:58.480Z,8.43
2023-03-24T05:02:05.761Z,9.57
2023-03-24T05:03:28.524Z,8.80
2023-03-24T05:04:37.170Z,9.00
2023-03-24T05:05:50.493Z,8.27
2023-03-24T05:06:56.912Z,9.05
2023-03-24T05:08:02.089Z,9.25
2023-03-24T05:09:09.210Z,8.90
2023-03-24T05:10:12.050Z,8.77
2023-03-24T05:11:27.271Z,8.50
2023-03-24T05:12:40.950Z,8.25
2023-03-24T05:13:48.772Z,9.18
2023-03-24T05:14:51.411Z,7.97
2023-03-24T05:15:55.294Z,7.80
2023-03-24T05:17:09.392Z,9.77
2023-03-24T05:18:11.937Z,9.15
2023-03-24T05:19:16.632Z,9.77
2023-03-24T05:20:19.914Z,9.85
2023-03-24T05:21:27.294Z,10.30
2023-03-24T05:22:31.039Z,9.50
2023-03-24T05:23:38.729Z,10.27
2023-03-24T05:24:41.356Z,10.00
2023-03-24T05:25:45.209Z,9.85
2023-03-24T05:26:47.765Z,9.25
2023-03-24T05:27:53.861Z,8.55
2023-03-24T05:29:01.302Z,9.30
2023-03-24T05:30:06.467Z,10.52
2023-03-24T05:31:10.548Z,11.02
2023-03-24T05:32:33.739Z,11.38
2023-03-24T05:33:36.051Z,11.65
2023-03-24T05:34:39.334Z,12.35
2023-03-24T05:35:47.981Z,11.00
2023-03-24T05:36:51.589Z,10.38
2023-03-24T05:37:56.699Z,10.25
2023-03-24T05:39:00.109Z,10.90
2023-03-24T05:40:14.670Z,9.93
2023-03-24T05:41:26.467Z,10.15
2023-03-24T05:42:29.038Z,9.73
2023-03-24T05:43:33.328Z,10.88
2023-03-24T05:44:47.688Z,10.25
2023-03-24T05:46:00.370Z,10.43
2023-03-24T05:47:16.177Z,10.23
2023-03-24T05:48:20.695Z,9.68
2023-03-24T05:49:50.685Z,10.95
2023-03-24T05:50:53.330Z,10.93
2023-03-24T05:51:57.488Z,11.63
2023-03-24T05:52:59.980Z,10.20
2023-03-24T05:54:19.801Z,10.85
2023-03-24T05:55:24.702Z,11.55
2023-03-24T05:56:35.183Z,11.73
2023-03-24T05:57:46.550Z,11.90
2023-03-24T05:59:13.000Z,12.05
2023-03-24T06:00:45.119Z,12.95
2023-03-24T06:01:56.908Z,13.65
2023-03-24T06:03:14.129Z,12.95
2023-03-24T06:04:22.443Z,14.13
2023-03-24T06:05:28.684Z,13.52
2023-03-24T06:06:31.225Z,13.35
2023-03-24T06:07:34.760Z,12.48
2023-03-24T06:09:02.618Z,12.52
2023-03-24T06:10:07.791Z,11.88
2023-03-24T06:11:19.525Z,11.60
2023-03-24T06:12:38.656Z,12.65
2023-03-24T06:13:41.489Z,12.77
2023-03-24T06:14:48.729Z,12.88
2023-03-24T06:15:54.712Z,13.18
2023-03-24T06:17:22.464Z,14.77
2023-03-24T06:18:27.787Z,14.63
2023-03-24T06:19:34.919Z,15.52
2023-03-24T06:21:00.347Z,15.82
2023-03-24T06:22:11.719Z,15.75
2023-03-24T06:23:26.084Z,15.15
2023-03-24T06:25:03.519Z,13.65
2023-03-24T06:26:12.532Z,13.70
2023-03-24T06:27:26.435Z,13.60
2023-03-24T06:28:34.618Z,13.38
2023-03-24T06:29:45.809Z,14.75
2023-03-24T06:30:51.318Z,13.52
2023-03-24T06:32:01.431Z,13.70
2023-03-24T06:33:08.368Z,14.50
2023-03-24T06:34:11.894Z,14.40
2023-03-24T06:35:17.163Z,13.75
2023-03-24T06:36:41.772Z,14.23
2023-03-24T06:37:44.771Z,12.10
2023-03-24T06:38:51.230Z,11.40
2023-03-24T06:39:55.933Z,10.40
2023-03-24T06:41:02.878Z,10.52
2023-03-24T06:42:07.087Z,11.13
2023-03-24T06:43:09.597Z,10.77
2023-03-24T06:44:15.577Z,9.77
2023-03-24T06:45:18.365Z,9.23
2023-03-24T06:46:24.166Z,9.23
2023-03-24T06:47:28.118Z,9.15
2023-03-24T06:48:31.761Z,8.95
2023-03-24T06:50:07.194Z,8.63
2023-03-24T06:51:11.423Z,8.00
2023-03-24T06:52:16.408Z,8.98
2023-03-24T06:53:19.646Z,9.18
2023-03-24T06:54:23.282Z,9.27
2023-03-24T06:55:25.892Z,9.02
2023-03-24T06:56:30.852Z,9.02
2023-03-24T06:57:35.635Z,9.00
2023-03-24T06:59:05.167Z,9.05
2023-03-24T07:00:10.423Z,9.55
2023-03-24T07:01:26.458Z,9.00
2023-03-24T07:02:42.927Z,8.98
2023-03-24T07:03:45.643Z,8.60
2023-03-24T07:05:11.417Z,8.68
2023-03-24T07:06:18.579Z,8.73
2023-03-24T07:09:01.011Z,7.60
2023-03-24T07:10:07.124Z,8.68
2023-03-24T07:11:10.324Z,8.02
2023-03-24T07:12:17.772Z,8.40
2023-03-24T07:13:20.140Z,8.52
2023-03-24T07:14:26.366Z,8.45
2023-03-24T07:15:31.712Z,7.40
2023-03-24T07:16:35.628Z,7.68
2023-03-24T07:18:09.035Z,7.45
2023-03-24T07:19:19.110Z,7.57
2023-03-24T07:20:29.258Z,7.28
2023-03-24T07:22:02.516Z,6.65
2023-03-24T07:23:27.905Z,6.85
2023-03-24T07:24:43.199Z,7.18
2023-03-24T07:26:09.595Z,7.05
2023-03-24T07:27:34.297Z,6.93
2023-03-24T07:28:37.014Z,7.50
2023-03-24T07:29:41.896Z,8.07
2023-03-24T07:30:57.576Z,7.72
2023-03-24T07:32:01.668Z,7.10
2023-03-24T07:33:04.821Z,8.50
2023-03-24T07:34:10.026Z,7.57
2023-03-24T07:35:16.637Z,7.68
2023-03-24T07:36:23.590Z,7.38
2023-03-24T07:37:26.071Z,7.60
2023-03-24T07:38:29.632Z,7.35
2023-03-24T07:39:37.281Z,6.68
2023-03-24T07:40:41.090Z,6.97
2023-03-24T07:41:44.274Z,7.43
2023-03-24T07:42:56.182Z,7.85
2023-03-24T07:44:16.012Z,7.60
2023-03-24T07:45:25.136Z,7.78
2023-03-24T07:46:32.019Z,8.30
2023-03-24T07:47:35.349Z,7.38
2023-03-24T07:48:40.098Z,8.75
2023-03-24T07:49:43.889Z,7.93
2023-03-24T07:50:51.711Z,7.75
2023-03-24T07:52:21.536Z,8.57
2023-03-24T07:53:27.819Z,7.20
2023-03-24T07:54:32.197Z,8.10
2023-03-24T07:55:36.350Z,7.80
2023-03-24T07:56:46.708Z,8.50
2023-03-24T07:57:50.211Z,9.25
2023-03-24T07:58:54.015Z,8.13
2023-03-24T08:00:14.939Z,7.50
2023-03-24T08:01:18.286Z,8.07
2023-03-24T08:02:28.409Z,7.90
2023-03-24T08:03:57.986Z,7.32
2023-03-24T08:05:23.858Z,6.85
2023-03-24T08:06:49.136Z,6.88
2023-03-24T08:07:55.988Z,6.90
2023-03-24T08:09:01.072Z,6.85
2023-03-24T08:10:04.380Z,6.60
2023-03-24T08:11:08.402Z,6.03
2023-03-24T08:12:20.400Z,6.80
2023-03-24T08:14:43.410Z,6.13
2023-03-24T08:15:49.856Z,6.57
2023-03-24T08:16:53.080Z,5.90
2023-03-24T08:18:00.301Z,5.20
2023-03-24T08:19:04.902Z,6.00
2023-03-24T08:20:15.049Z,5.15
2023-03-24T08:21:38.160Z,6.15
2023-03-24T08:22:41.989Z,5.78
2023-03-24T08:23:58.871Z,5.82
2023-03-24T08:25:14.962Z,6.00
2023-03-24T08:26:49.973Z,6.10
2023-03-24T08:27:53.893Z,5.55
2023-03-24T08:29:01.164Z,6.88
2023-03-24T08:30:11.021Z,5.97
2023-03-24T08:31:14.501Z,4.88
2023-03-24T08:32:17.021Z,5.05
2023-03-24T08:33:41.760Z,5.57
2023-03-24T08:34:46.929Z,6.10
2023-03-24T08:35:57.672Z,5.80
2023-03-24T08:37:01.266Z,5.30
2023-03-24T08:38:23.289Z,5.80
2023-03-24T08:39:25.745Z,6.00
2023-03-24T08:40:30.259Z,4.60
2023-03-24T08:41:35.945Z,5.35
2023-03-24T08:43:53.984Z,5.25
2023-03-24T08:45:02.164Z,5.53
2023-03-24T08:46:12.458Z,5.90
2023-03-24T08:47:18.244Z,5.73
2023-03-24T08:48:21.794Z,5.53
2023-03-24T08:49:23.853Z,5.10
2023-03-24T08:50:28.947Z,5.40
2023-03-24T08:51:35.430Z,5.40
2023-03-24T08:52:48.814Z,5.40
2023-03-24T08:53:52.694Z,5.70
2023-03-24T08:54:54.940Z,4.97
2023-03-24T08:56:08.010Z,5.50
2023-03-24T08:57:10.747Z,5.47
2023-03-24T08:58:16.279Z,4.87
2023-03-24T08:59:25.711Z,5.53
2023-03-24T09:00:32.423Z,7.53
2023-03-24T09:01:45.691Z,5.33
2023-03-24T09:02:50.024Z,5.40
2023-03-24T09:03:54.374Z,5.00
2023-03-24T09:05:01.897Z,5.07
2023-03-24T09:06:05.897Z,5.20
2023-03-24T09:07:09.929Z,4.63
2023-03-24T09:08:19.934Z,5.20
2023-03-24T09:09:26.497Z,5.20
2023-03-24T09:10:29.617Z,4.57
2023-03-24T09:11:51.606Z,4.43
2023-03-24T09:12:53.854Z,4.27
2023-03-24T09:13:57.770Z,5.33
2023-03-24T09:15:01.569Z,4.93
2023-03-24T09:16:07.230Z,4.57
2023-03-24T09:17:10.595Z,4.63
2023-03-24T09:18:13.797Z,4.90
2023-03-24T09:19:17.554Z,4.33
2023-03-24T09:20:21.613Z,5.17
2023-03-24T09:21:25.031Z,4.67
2023-03-24T09:22:27.415Z,5.43
2023-03-24T09:23:32.183Z,4.87
2023-03-24T09:24:34.728Z,4.00
2023-03-24T09:25:38.606Z,4.90
2023-03-24T09:26:40.724Z,4.87
2023-03-24T09:28:47.498Z,4.07
2023-03-24T09:30:51.977Z,3.63
2023-03-24T09:31:55.597Z,4.30
2023-03-24T09:33:11.172Z,4.03
2023-03-24T09:34:38.438Z,4.20
2023-03-24T09:35:43.963Z,4.67
2023-03-24T09:36:46.918Z,4.07
2023-03-24T09:37:49.052Z,4.30
2023-03-24T09:39:05.421Z,3.70
2023-03-24T09:40:08.605Z,4.20
2023-03-24T09:41:16.522Z,4.40
2023-03-24T09:42:22.277Z,3.90
2023-03-24T09:44:05.529Z,4.10
2023-03-24T09:45:13.633Z,4.17
2023-03-24T09:46:31.757Z,4.40
2023-03-24T09:48:36.230Z,4.77
2023-03-24T09:49:44.674Z,4.10
2023-03-24T09:51:00.347Z,4.10
2023-03-24T09:52:05.853Z,4.60
2023-03-24T09:53:26.256Z,4.47
2023-03-24T09:54:32.746Z,4.27
2023-03-24T09:55:40.782Z,5.20
2023-03-24T09:56:46.143Z,5.27
2023-03-24T09:57:51.086Z,5.23
2023-03-24T09:59:02.209Z,4.87
2023-03-24T10:00:17.265Z,4.83
2023-03-24T10:01:21.222Z,5.40
2023-03-24T10:02:23.807Z,4.83
2023-03-24T10:03:27.755Z,4.50
2023-03-24T10:04:32.435Z,4.70
2023-03-24T10:05:42.993Z,4.87
2023-03-24T10:06:48.541Z,5.47
2023-03-24T10:08:22.870Z,5.60
2023-03-24T10:09:36.979Z,5.10
2023-03-24T10:10:47.084Z,4.50
2023-03-24T10:11:58.130Z,4.90
2023-03-24T10:13:07.105Z,5.00
2023-03-24T10:14:22.029Z,4.50
2023-03-24T10:15:41.326Z,5.13
2023-03-24T10:16:51.774Z,6.50
2023-03-24T10:18:12.015Z,5.87
2023-03-24T10:19:24.936Z,5.47
2023-03-24T10:20:33.891Z,5.57
2023-03-24T10:21:39.157Z,5.50
2023-03-24T10:22:49.471Z,5.13
2023-03-24T10:23:58.409Z,5.07
2023-03-24T10:25:08.069Z,4.90
2023-03-24T10:26:27.736Z,4.70
2023-03-24T10:27:33.074Z,5.63
2023-03-24T10:28:42.971Z,5.70
2023-03-24T10:29:47.139Z,4.80
2023-03-24T10:30:52.682Z,5.03
2023-03-24T10:32:04.111Z,5.13
2023-03-24T10:33:11.776Z,5.83
2023-03-24T10:34:15.951Z,8.23
2023-03-24T10:35:23.034Z,8.07
2023-03-24T10:36:31.159Z,6.03
2023-03-24T10:37:33.663Z,5.23
2023-03-24T10:38:36.852Z,5.43
2023-03-24T10:39:44.820Z,5.67
2023-03-24T10:40:48.810Z,6.57
2023-03-24T10:41:52.198Z,10.27
2023-03-24T10:43:07.212Z,6.70
2023-03-24T10:44:17.501Z,5.80
2023-03-24T10:45:29.138Z,6.00
2023-03-24T10:46:34.082Z,4.87
2023-03-24T10:47:36.626Z,4.90
2023-03-24T10:48:45.223Z,5.87
2023-03-24T10:49:55.036Z,6.60
2023-03-24T10:50:59.832Z,5.67
2023-03-24T10:52:04.643Z,7.03
2023-03-24T10:53:09.868Z,5.00
2023-03-24T10:54:16.230Z,5.00
2023-03-24T10:55:24.709Z,4.77
2023-03-24T10:56:42.846Z,4.50
2023-03-24T10:58:19.115Z,5.10
2023-03-24T10:59:25.857Z,4.17
2023-03-24T11:00:44.741Z,5.00
2023-03-24T11:02:21.019Z,4.40
2023-03-24T11:03:36.604Z,4.07
2023-03-24T11:04:45.017Z,4.23
2023-03-24T11:06:05.421Z,3.93
2023-03-24T11:07:22.803Z,4.57
2023-03-24T11:08:28.609Z,4.17
2023-03-24T11:09:39.857Z,4.20
2023-03-24T11:10:55.438Z,4.93
2023-03-24T11:12:25.293Z,5.17
2023-03-24T11:13:43.085Z,4.00
2023-03-24T11:15:18.000Z,3.50
2023-03-24T11:16:41.389Z,4.77
2023-03-24T11:17:46.065Z,4.40
2023-03-24T11:19:09.521Z,4.20
2023-03-24T11:20:18.701Z,3.87
2023-03-24T11:21:26.281Z,4.47
2023-03-24T11:22:43.916Z,4.40
2023-03-24T11:23:53.201Z,4.43
2023-03-24T11:25:02.987Z,5.17
2023-03-24T11:26:14.489Z,5.33
2023-03-24T11:27:24.098Z,4.60
2023-03-24T11:28:34.505Z,4.10
2023-03-24T11:29:39.587Z,4.50
2023-03-24T11:30:47.349Z,4.23
2023-03-24T11:32:12.338Z,4.17
2023-03-24T11:33:35.673Z,3.83
2023-03-24T11:34:45.129Z,5.03
2023-03-24T11:36:05.180Z,3.70
2023-03-24T11:37:16.816Z,3.77
2023-03-24T11:38:36.108Z,4.43
2023-03-24T11:39:41.008Z,3.67
2023-03-24T11:40:59.653Z,3.97
2023-03-24T11:42:15.035Z,4.37
2023-03-24T11:43:21.108Z,6.60
2023-03-24T11:44:26.203Z,4.10
2023-03-24T11:45:34.007Z,3.67
2023-03-24T11:46:39.673Z,3.47
2023-03-24T11:47:44.785Z,3.97
2023-03-24T11:48:52.629Z,4.20
2023-03-24T11:50:01.223Z,4.00
2023-03-24T11:51:05.921Z,4.50
2023-03-24T11:52:18.164Z,3.67
2023-03-24T11:53:24.572Z,3.97
2023-03-24T11:54:33.185Z,3.93
2023-03-24T11:55:39.621Z,3.53
2023-03-24T11:56:46.530Z,3.57
2023-03-24T11:58:04.290Z,3.67
2023-03-24T11:59:14.267Z,4.80
2023-03-24T12:00:22.742Z,4.13
2023-03-24T12:01:29.292Z,3.97
2023-03-24T12:02:46.244Z,3.90
2023-03-24T12:04:17.751Z,4.23
2023-03-24T12:05:28.107Z,4.43
2023-03-24T12:06:50.257Z,3.67
2023-03-24T12:08:14.672Z,5.77
2023-03-24T12:09:23.457Z,4.63
2023-03-24T12:10:35.659Z,3.90
2023-03-24T12:11:49.260Z,3.90
2023-03-24T12:13:01.322Z,4.10
2023-03-24T12:14:06.675Z,4.10
2023-03-24T12:15:32.154Z,4.23
2023-03-24T12:16:47.575Z,4.40
2023-03-24T12:17:56.040Z,3.63
2023-03-24T12:19:43.277Z,3.93
2023-03-24T12:20:54.216Z,3.97
2023-03-24T12:22:02.359Z,4.07
2023-03-24T12:23:10.397Z,3.63
2023-03-24T12:24:43.912Z,4.10
2023-03-24T12:26:02.187Z,4.30
2023-03-24T12:27:04.486Z,4.27
2023-03-24T12:28:23.050Z,3.87
2023-03-24T12:29:44.769Z,4.17
2023-03-24T12:30:56.938Z,3.70
2023-03-24T12:32:16.146Z,4.27
2023-03-24T12:33:34.340Z,4.60
2023-03-24T12:35:01.811Z,4.10
2023-03-24T12:36:24.852Z,4.10
2023-03-24T12:37:37.778Z,3.67
2023-03-24T12:38:59.725Z,6.00
2023-03-24T12:40:20.318Z,4.50
2023-03-24T12:41:44.019Z,3.87
2023-03-24T12:42:47.229Z,5.13
2023-03-24T12:44:03.236Z,5.23
2023-03-24T12:45:32.444Z,4.30
2023-03-24T12:46:47.816Z,4.23
2023-03-24T12:48:17.502Z,4.00
2023-03-24T12:49:32.916Z,4.70
2023-03-24T12:50:47.890Z,3.97
2023-03-24T12:51:58.058Z,4.17
2023-03-24T12:53:23.336Z,3.97
2023-03-24T12:54:33.639Z,4.00
2023-03-24T12:55:42.509Z,3.93
2023-03-24T12:56:50.431Z,4.17
2023-03-24T12:57:57.185Z,4.27
2023-03-24T12:59:04.004Z,4.60
2023-03-24T13:00:15.177Z,4.53
2023-03-24T13:01:24.757Z,4.47
2023-03-24T13:02:30.770Z,5.33
2023-03-24T13:03:38.870Z,4.10
2023-03-24T13:04:43.972Z,4.57
2023-03-24T13:05:51.785Z,4.17
2023-03-24T13:07:01.931Z,4.33
2023-03-24T13:08:08.298Z,4.63
2023-03-24T13:09:18.005Z,4.80
2023-03-24T13:10:23.372Z,4.40
2023-03-24T13:11:35.261Z,4.20
2023-03-24T13:12:42.149Z,4.97
2023-03-24T13:13:44.693Z,4.40
2023-03-24T13:14:53.288Z,4.50
2023-03-24T13:15:58.609Z,4.17
2023-03-24T13:17:05.375Z,4.63
2023-03-24T13:18:19.624Z,4.37
2023-03-24T13:19:26.422Z,5.50
2023-03-24T13:20:35.234Z,4.77
2023-03-24T13:21:40.130Z,5.43
2023-03-24T13:22:43.605Z,3.97
2023-03-24T13:23:51.739Z,4.40
2023-03-24T13:24:56.181Z,5.33
2023-03-24T13:26:06.218Z,4.90
2023-03-24T13:27:14.396Z,4.97
2023-03-24T13:28:21.737Z,4.47
2023-03-24T13:29:45.658Z,4.03
2023-03-24T13:30:52.402Z,6.13
2023-03-24T13:31:57.692Z,7.37
2023-03-24T13:33:05.072Z,4.70
2023-03-24T13:34:23.227Z,4.17
2023-03-24T13:35:48.301Z,4.13
2023-03-24T13:36:56.934Z,4.20
2023-03-24T13:38:09.780Z,4.37
2023-03-24T13:39:14.791Z,4.70
2023-03-24T13:40:23.241Z,4.63
2023-03-24T13:41:27.929Z,4.20
2023-03-24T13:42:32.041Z,4.20
2023-03-24T13:43:35.716Z,5.93
2023-03-24T13:44:40.806Z,6.80
2023-03-24T13:45:44.597Z,4.80
2023-03-24T13:47:07.250Z,5.13
2023-03-24T13:48:25.844Z,4.40
2023-03-24T13:49:32.254Z,4.97
2023-03-24T13:50:34.535Z,5.03
2023-03-24T13:51:39.966Z,4.30
2023-03-24T13:52:46.711Z,4.30
2023-03-24T13:53:52.737Z,5.20
2023-03-24T13:54:57.643Z,4.37
2023-03-24T13:56:01.783Z,4.90
2023-03-24T13:57:07.443Z,3.57
2023-03-24T13:58:18.942Z,9.73
2023-03-24T13:59:30.071Z,5.70
2023-03-24T14:00:33.129Z,4.17
2023-03-24T14:01:37.978Z,4.33
2023-03-24T14:02:43.755Z,4.10
2023-03-24T14:03:46.792Z,4.50
2023-03-24T14:04:51.455Z,4.60
2023-03-24T14:06:00.054Z,4.40
2023-03-24T14:07:33.333Z,5.53
2023-03-24T14:08:44.045Z,5.03
2023-03-24T14:09:59.325Z,4.50
2023-03-24T14:11:02.546Z,4.30
2023-03-24T14:12:16.477Z,4.43
2023-03-24T14:13:24.147Z,4.23
2023-03-24T14:14:29.248Z,4.60
2023-03-24T14:15:32.097Z,4.03
2023-03-24T14:16:47.562Z,4.83
2023-03-24T14:17:54.056Z,4.30
2023-03-24T14:19:10.397Z,5.43
2023-03-24T14:20:27.054Z,5.50
2023-03-24T14:21:29.519Z,4.30
2023-03-24T14:22:35.497Z,4.60
2023-03-24T14:23:39.190Z,5.07
2023-03-24T14:24:45.209Z,4.83
2023-03-24T14:25:55.418Z,4.53
2023-03-24T14:26:57.758Z,6.17
2023-03-24T14:28:20.568Z,5.63
2023-03-24T14:29:38.313Z,4.33
2023-03-24T14:31:10.239Z,4.75
2023-03-24T14:32:20.696Z,5.23
2023-03-24T14:33:26.731Z,4.60
2023-03-24T14:34:30.213Z,4.43
2023-03-24T14:35:42.632Z,5.40
2023-03-24T14:36:45.856Z,4.83
2023-03-24T14:37:51.661Z,4.30
2023-03-24T14:38:55.129Z,4.43
2023-03-24T14:39:59.249Z,4.57
2023-03-24T14:41:07.856Z,5.07
2023-03-24T14:42:45.456Z,4.75
2023-03-24T14:43:57.930Z,4.93
2023-03-24T14:45:01.186Z,4.78
2023-03-24T14:46:06.405Z,5.20
2023-03-24T14:47:09.600Z,7.13
2023-03-24T14:48:27.051Z,5.07
2023-03-24T14:49:32.531Z,4.73
2023-03-24T14:50:36.461Z,4.78
2023-03-24T14:51:43.440Z,5.17
2023-03-24T14:52:50.334Z,5.37
2023-03-24T14:53:57.875Z,5.10
2023-03-24T14:55:05.761Z,4.90
2023-03-24T14:56:13.676Z,4.97
2023-03-24T14:57:21.228Z,4.90
2023-03-24T14:58:26.459Z,5.50
2023-03-24T14:59:36.621Z,4.97
2023-03-24T15:00:45.559Z,5.50
2023-03-24T15:01:55.829Z,5.27
2023-03-24T15:03:02.196Z,5.23
2023-03-24T15:04:06.270Z,5.57
2023-03-24T15:05:24.948Z,5.30
2023-03-24T15:06:27.582Z,5.50
2023-03-24T15:07:31.313Z,5.88
2023-03-24T15:08:33.424Z,4.80
2023-03-24T15:09:38.613Z,5.00
2023-03-24T15:10:46.603Z,4.75
2023-03-24T15:11:49.281Z,4.85
2023-03-24T15:12:52.336Z,5.18
2023-03-24T15:13:57.397Z,4.70
2023-03-24T15:15:00.701Z,4.75
2023-03-24T15:16:06.733Z,13.13
2023-03-24T15:17:19.862Z,7.50
2023-03-24T15:18:22.481Z,5.72
2023-03-24T15:19:27.045Z,5.20
2023-03-24T15:20:33.285Z,5.30
2023-03-24T15:21:39.136Z,5.43
2023-03-24T15:22:41.699Z,4.97
2023-03-24T15:23:48.946Z,5.40
2023-03-24T15:24:53.306Z,5.07
2023-03-24T15:25:57.563Z,5.75
2023-03-24T15:27:28.948Z,5.18
2023-03-24T15:28:31.372Z,5.07
2023-03-24T15:29:34.805Z,5.28
2023-03-24T15:30:36.955Z,4.85
2023-03-24T15:31:40.803Z,5.15
2023-03-24T15:32:46.232Z,4.82
2023-03-24T15:33:50.074Z,4.60
2023-03-24T15:34:55.523Z,4.47
2023-03-24T15:36:00.894Z,4.90
2023-03-24T15:37:05.318Z,4.82
2023-03-24T15:38:08.343Z,4.47
2023-03-24T15:39:18.992Z,4.50
2023-03-24T15:40:36.719Z,4.60
2023-03-24T15:41:40.489Z,4.70
2023-03-24T15:43:03.477Z,5.63
2023-03-24T15:44:09.433Z,5.07
2023-03-24T15:45:20.758Z,4.75
2023-03-24T15:46:26.980Z,5.28
2023-03-24T15:47:30.857Z,5.63
2023-03-24T15:48:36.849Z,5.93
2023-03-24T15:49:48.216Z,5.95
2023-03-24T15:50:59.756Z,5.78
2023-03-24T15:52:04.154Z,5.38
2023-03-24T15:53:22.675Z,5.78
2023-03-24T15:54:28.897Z,5.63
2023-03-24T15:55:34.906Z,5.00
2023-03-24T15:57:01.094Z,5.80
2023-03-24T15:58:22.365Z,5.18
2023-03-24T15:59:25.787Z,5.10
2023-03-24T16:00:36.160Z,5.60